Time;durP1;ratioP1;P1;durP2;ratioP2;P2;SDS_P1;SDS_P2;PMS_P1;PMS_P2;Temp;Humidity;BMP_temperature;BMP_pressure;BME280_temperature;BME280_humidity;BME280_pressure;Samples;Min_cycle;Max_cycle;Signal;HPM_P1;HPM_P2
2023/10/13 00:02:13;;;;;;;14.45;10.48;;;;;;;18.15;100.00;100969.31;3614452;39;20445;-68
2023/10/13 00:04:39;;;;;;;13.63;9.70;;;;;;;18.16;100.00;100971.91;3609181;39;20374;-69
2023/10/13 00:07:09;;;;;;;13.73;10.65;;;;;;;18.14;100.00;100971.19;3613135;39;20062;-69
2023/10/13 00:09:37;;;;;;;17.20;10.35;;;;;;;18.16;100.00;100966.44;3616000;39;20051;-68
2023/10/13 00:12:13;;;;;;;12.40;9.85;;;;;;;18.15;100.00;100964.75;3617992;39;20043;-68
2023/10/13 00:14:41;;;;;;;13.95;9.10;;;;;;;18.13;100.00;100960.44;3617654;39;20051;-69
2023/10/13 00:17:08;;;;;;;13.35;9.40;;;;;;;18.08;100.00;100952.72;3617589;39;20054;-70
2023/10/13 00:19:44;;;;;;;13.90;10.10;;;;;;;18.13;100.00;100955.84;3612861;39;20050;-69
2023/10/13 00:22:10;;;;;;;15.13;9.85;;;;;;;17.80;100.00;100900.81;3616104;39;20055;-70
2023/10/13 00:24:48;;;;;;;13.73;9.15;;;;;;;18.10;100.00;100956.13;3617401;39;20123;-70
2023/10/13 00:27:30;;;;;;;14.98;8.85;;;;;;;17.84;100.00;100907.69;3616189;39;20055;-69
2023/10/13 00:32:43;;;;;;;16.25;9.32;;;;;;;18.07;100.00;100949.09;3614384;39;20073;-69
2023/10/13 00:35:14;;;;;;;17.40;10.57;;;;;;;18.05;100.00;100944.81;3615870;39;20304;-70
2023/10/13 00:37:44;;;;;;;12.90;9.57;;;;;;;18.05;100.00;100937.53;3617144;39;20471;-70
2023/10/13 00:40:41;;;;;;;13.43;8.48;;;;;;;18.05;100.00;100942.09;3617635;39;20363;-70
2023/10/13 00:48:34;;;;;;;11.07;8.43;;;;;;;18.01;100.00;100929.75;3605743;39;20123;-69
2023/10/13 00:51:18;;;;;;;12.98;8.43;;;;;;;17.62;100.00;100864.41;3616732;39;20303;-70
2023/10/13 00:53:47;;;;;;;14.05;9.27;;;;;;;17.98;100.00;100924.59;3616509;39;20154;-69
2023/10/13 00:56:27;;;;;;;10.60;8.38;;;;;;;17.97;100.00;100925.63;3616070;39;20055;-70
2023/10/13 00:58:55;;;;;;;12.95;7.75;;;;;;;17.95;100.00;100914.88;3610414;39;20046;-68
2023/10/13 01:01:21;;;;;;;11.82;7.88;;;;;;;17.95;100.00;100909.44;3616979;39;20055;-69
2023/10/13 01:03:49;;;;;;;10.55;7.68;;;;;;;17.94;100.00;100906.84;3617370;39;20065;-70
2023/10/13 01:06:18;;;;;;;14.00;8.18;;;;;;;17.94;100.00;100904.13;3615452;39;20130;-69
2023/10/13 01:08:57;;;;;;;10.93;7.60;;;;;;;17.93;100.00;100906.00;3615141;39;20055;-70
2023/10/13 01:11:23;;;;;;;11.55;7.68;;;;;;;17.93;100.00;100903.28;3616920;39;20054;-69
2023/10/13 01:13:53;;;;;;;9.77;7.15;;;;;;;17.95;100.00;100903.13;3618473;39;20054;-69
2023/10/13 01:16:26;;;;;;;11.52;7.70;;;;;;;17.92;100.00;100900.69;3615406;39;20324;-69
2023/10/13 01:18:53;;;;;;;;;;;;;;;17.89;100.00;100892.81;3618105;39;20355;-69
2023/10/13 01:21:27;;;;;;;14.43;7.05;;;;;;;17.86;100.00;100883.94;3616545;39;20012;-69
2023/10/13 01:23:53;;;;;;;9.98;7.10;;;;;;;17.75;100.00;100865.00;3616512;39;20046;-68
2023/10/13 01:26:26;;;;;;;11.95;6.80;;;;;;;17.85;100.00;100876.75;3615654;39;20419;-69
2023/10/13 01:28:57;;;;;;;10.23;6.60;;;;;;;17.84;100.00;100869.63;3605282;39;20403;-68
2023/10/13 01:31:29;;;;;;;11.80;6.75;;;;;;;17.80;100.00;100865.47;3617107;39;20278;-69
2023/10/13 01:33:58;;;;;;;11.82;6.90;;;;;;;17.84;100.00;100864.19;3605551;39;20046;-69
2023/10/13 01:36:28;;;;;;;10.52;6.50;;;;;;;17.84;100.00;100857.88;3617251;39;20313;-69
2023/10/13 01:38:54;;;;;;;12.70;6.78;;;;;;;17.84;100.00;100858.75;3616358;39;20059;-68
2023/10/13 01:41:22;;;;;;;9.88;6.85;;;;;;;17.84;100.00;100849.72;3616175;39;20347;-69
2023/10/13 01:43:48;;;;;;;10.00;6.10;;;;;;;17.83;100.00;100843.44;3614344;39;20091;-69
2023/10/13 01:46:15;;;;;;;15.15;6.78;;;;;;;17.82;100.00;100844.44;3613754;39;20632;-68
2023/10/13 01:48:43;;;;;;;14.38;10.10;;;;;;;17.81;100.00;100833.69;3616681;39;20082;-68
2023/10/13 01:51:12;;;;;;;10.55;7.97;;;;;;;17.83;100.00;100834.41;3614784;39;20110;-69
2023/10/13 01:53:39;;;;;;;8.57;6.78;;;;;;;17.35;100.00;100754.50;3614854;39;20104;-69
2023/10/13 01:56:10;;;;;;;9.98;6.95;;;;;;;17.83;100.00;100827.13;3615633;39;20082;-69
2023/10/13 01:58:37;;;;;;;11.77;7.32;;;;;;;17.82;100.00;100824.53;3616933;39;20050;-69
2023/10/13 02:01:04;;;;;;;9.68;6.53;;;;;;;17.83;100.00;100818.97;3608519;39;20096;-69
2023/10/13 02:03:30;;;;;;;11.00;6.63;;;;;;;17.83;100.00;100812.66;3615735;39;20375;-69
2023/10/13 02:05:58;;;;;;;9.40;6.63;;;;;;;17.82;100.00;100817.25;3614998;39;20089;-68
2023/10/13 02:08:24;;;;;;;10.10;6.53;;;;;;;17.83;100.00;100816.25;3603724;39;20169;-68
2023/10/13 02:11:01;;;;;;;11.00;7.40;;;;;;;17.83;100.00;100807.22;3615419;39;20039;-70
2023/10/13 02:13:27;;;;;;;10.25;7.45;;;;;;;17.80;100.00;100800.22;3614962;39;20058;-68
2023/10/13 02:16:01;;;;;;;11.48;7.30;;;;;;;17.81;100.00;100803.78;3614894;39;20120;-68
2023/10/13 02:18:27;;;;;;;14.30;8.38;;;;;;;17.71;100.00;100782.00;3614445;39;20081;-69
2023/10/13 02:21:04;;;;;;;10.88;8.00;;;;;;;17.81;100.00;100798.34;3615448;39;20382;-68
2023/10/13 02:23:30;;;;;;;15.13;10.13;;;;;;;17.83;100.00;100813.53;3616229;39;20104;-70
2023/10/13 02:26:11;;;;;;;14.43;10.30;;;;;;;17.84;100.00;100807.06;3613673;39;20377;-69
2023/10/13 02:28:37;;;;;;;16.40;10.23;;;;;;;17.73;100.00;100777.28;3615600;39;20047;-69
2023/10/13 02:31:04;;;;;;;13.77;11.00;;;;;;;17.86;100.00;100786.03;3614164;39;20057;-68
2023/10/13 02:33:30;;;;;;;19.00;11.90;;;;;;;17.68;100.00;100755.09;3614722;39;20051;-68
2023/10/13 02:35:58;;;;;;;17.55;11.90;;;;;;;17.92;100.00;100789.16;3609774;39;20051;-69
2023/10/13 02:38:33;;;;;;;15.30;11.73;;;;;;;17.91;100.00;100776.59;3612744;39;20154;-68
2023/10/13 02:41:07;;;;;;;17.88;12.05;;;;;;;17.93;100.00;100780.88;3614950;39;22051;-69
2023/10/13 02:43:35;;;;;;;19.60;15.30;;;;;;;17.94;100.00;100763.56;3612981;39;20307;-67
2023/10/13 02:46:04;;;;;;;17.95;13.73;;;;;;;17.95;100.00;100754.41;3614755;39;20054;-68
2023/10/13 02:48:39;;;;;;;22.88;13.70;;;;;;;17.92;100.00;100751.09;3607070;39;20066;-68
2023/10/13 02:51:14;;;;;;;21.40;14.10;;;;;;;17.95;100.00;100739.94;3619505;39;20059;-67
2023/10/13 02:53:41;;;;;;;22.83;13.38;;;;;;;17.95;100.00;100729.06;3614313;39;20274;-68
2023/10/13 02:56:06;;;;;;;21.60;15.23;;;;;;;17.97;100.00;100727.06;3617341;39;20047;-68
2023/10/13 02:58:38;;;;;;;21.60;14.93;;;;;;;17.97;100.00;100727.06;3615671;39;20062;-68
2023/10/13 03:01:17;;;;;;;21.15;15.60;;;;;;;17.89;100.00;100711.47;3615277;39;20073;-68
2023/10/13 03:03:51;;;;;;;23.08;15.38;;;;;;;17.99;100.00;100714.19;3617244;39;20042;-69
2023/10/13 03:06:40;;;;;;;25.38;16.75;;;;;;;17.84;100.00;100684.69;3618344;39;20046;-67
2023/10/13 03:09:15;;;;;;;22.02;16.33;;;;;;;18.01;100.00;100695.84;3614528;39;20058;-67
2023/10/13 03:11:48;;;;;;;21.02;16.38;;;;;;;17.90;100.00;100677.84;3616781;39;20122;-69
2023/10/13 03:14:27;;;;;;;22.90;16.60;;;;;;;18.03;100.00;100693.84;3615882;39;20063;-68
2023/10/13 03:17:02;;;;;;;22.92;16.30;;;;;;;18.05;100.00;100689.13;3615190;39;20057;-67
2023/10/13 03:19:39;;;;;;;22.27;16.77;;;;;;;18.07;100.00;100681.66;3616267;39;20051;-67
2023/10/13 03:22:11;;;;;;;21.17;16.38;;;;;;;18.08;100.00;100676.06;3617161;39;20058;-68
2023/10/13 03:24:46;;;;;;;24.10;17.60;;;;;;;18.09;100.00;100674.22;3605238;39;20111;-68
2023/10/13 03:27:38;;;;;;;27.13;18.33;;;;;;;18.12;100.00;100664.91;3616830;39;20103;-69
2023/10/13 03:30:10;;;;;;;26.30;18.90;;;;;;;18.12;100.00;100659.47;3618713;39;20359;-67
2023/10/13 03:32:43;;;;;;;29.13;18.95;;;;;;;18.13;100.00;100640.25;3616036;39;20070;-67
2023/10/13 03:35:24;;;;;;;24.70;18.40;;;;;;;18.14;100.00;100639.28;3614854;39;20039;-68
2023/10/13 03:37:54;;;;;;;26.48;18.73;;;;;;;17.95;100.00;100609.38;3615202;39;20288;-65
2023/10/13 03:43:11;;;;;;;26.17;18.35;;;;;;;18.19;100.00;100636.09;3614942;39;20458;-69
2023/10/13 03:45:42;;;;;;;26.98;19.10;;;;;;;18.19;100.00;100634.22;3617313;39;20046;-68
2023/10/13 03:51:03;;;;;;;22.33;18.45;;;;;;;18.22;100.00;100617.59;3613752;39;20379;-66
2023/10/13 03:53:35;;;;;;;26.27;19.08;;;;;;;18.24;100.00;100606.59;3614822;39;20059;-68
2023/10/13 03:56:11;;;;;;;26.10;18.73;;;;;;;18.27;100.00;100618.03;3616519;39;20046;-66
2023/10/13 03:58:45;;;;;;;28.73;18.67;;;;;;;18.26;100.00;100604.56;3616194;39;20400;-67
2023/10/13 04:01:14;;;;;;;27.55;19.40;;;;;;;18.03;100.00;100564.13;3615007;39;20147;-68
2023/10/13 04:03:57;;;;;;;23.08;18.48;;;;;;;18.28;100.00;100594.38;3615954;39;20050;-67
2023/10/13 04:17:27;;;;;;;24.38;17.25;;;;;;;18.36;100.00;100569.97;3614249;39;20098;-69
2023/10/13 04:36:16;;;;;;;18.58;14.27;;;;;;;18.44;100.00;100571.94;3615908;39;20089;-67
2023/10/13 04:41:42;;;;;;;17.95;13.60;;;;;;;18.35;100.00;100553.81;3613270;39;20629;-68
2023/10/13 04:47:07;;;;;;;17.85;13.38;;;;;;;18.47;100.00;100549.88;3616531;39;20124;-68
2023/10/13 04:57:34;;;;;;;19.20;11.73;;;;;;;18.13;100.00;100498.78;3615079;39;20127;-65
2023/10/13 05:47:01;;;;;;;7.95;6.60;;;;;;;18.63;100.00;100460.19;3615835;39;20135;-67
2023/10/13 06:30:04;;;;;;;10.45;6.28;;;;;;;18.57;100.00;100458.09;3613822;39;20144;-64
2023/10/13 06:32:30;;;;;;;12.98;7.43;;;;;;;18.53;100.00;100440.38;3616884;39;20127;-63
2023/10/13 06:35:07;;;;;;;12.75;6.80;;;;;;;18.59;100.00;100456.09;3617303;39;20047;-63
2023/10/13 06:37:34;;;;;;;14.60;6.80;;;;;;;18.59;100.00;100438.91;3621416;39;20533;-64
2023/10/13 06:40:25;;;;;;;13.93;7.32;;;;;;;18.61;100.00;100436.88;3614625;39;20334;-66
2023/10/13 06:42:53;;;;;;;13.60;6.85;;;;;;;18.63;100.00;100429.41;3606159;39;20082;-64
2023/10/13 06:45:20;;;;;;;15.77;6.78;;;;;;;18.63;100.00;100422.09;3619124;39;20066;-64
2023/10/13 06:47:46;;;;;;;11.93;6.25;;;;;;;18.66;100.00;100424.50;3615385;39;20123;-64
2023/10/13 06:50:19;;;;;;;12.38;6.85;;;;;;;18.66;100.00;100415.47;3615433;39;20058;-64
2023/10/13 06:52:49;;;;;;;12.50;6.45;;;;;;;18.66;100.00;100412.75;3619088;39;20383;-63
2023/10/13 06:55:27;;;;;;;10.88;6.63;;;;;;;18.65;100.00;100414.63;3616356;39;20111;-65
2023/10/13 06:57:59;;;;;;;12.32;6.05;;;;;;;18.61;100.00;100399.59;3615687;39;21352;-63
2023/10/13 07:00:29;;;;;;;16.73;7.07;;;;;;;18.68;100.00;100411.59;3616711;39;20083;-66
2023/10/13 07:03:05;;;;;;;15.35;7.60;;;;;;;18.69;100.00;100407.00;3614381;39;20363;-64
2023/10/13 07:05:35;;;;;;;14.93;6.65;;;;;;;18.70;100.00;100403.25;3615163;39;20112;-64
2023/10/13 07:08:04;;;;;;;16.40;7.75;;;;;;;18.72;100.00;100399.41;3613954;39;20385;-64
2023/10/13 07:10:30;;;;;;;16.63;7.80;;;;;;;18.73;100.00;100394.81;3618758;39;20084;-66
2023/10/13 07:13:00;;;;;;;14.80;7.50;;;;;;;18.74;100.00;100389.22;3615411;39;20379;-63
2023/10/13 07:15:28;;;;;;;15.15;7.38;;;;;;;18.73;100.00;100376.59;3615128;39;20079;-65
2023/10/13 07:17:59;;;;;;;16.95;7.43;;;;;;;18.78;100.00;100382.44;3617122;39;20094;-65
2023/10/13 07:23:02;;;;;;;17.83;6.60;;;;;;;18.85;100.00;100373.63;3612384;39;20066;-65
2023/10/13 07:25:32;;;;;;;16.63;7.47;;;;;;;18.84;100.00;100375.50;3614651;39;20047;-64
2023/10/13 07:27:59;;;;;;;12.75;6.45;;;;;;;18.87;100.00;100383.34;3615203;39;20038;-65
2023/10/13 07:30:27;;;;;;;15.00;6.45;;;;;;;18.90;100.00;100372.13;3616004;39;20069;-64
2023/10/13 07:32:59;;;;;;;13.85;6.32;;;;;;;18.94;100.00;100365.34;3615101;39;20135;-64
2023/10/13 07:35:26;;;;;;;13.68;6.13;;;;;;;19.00;100.00;100370.16;3614758;39;20047;-66
2023/10/13 07:37:53;;;;;;;13.65;5.95;;;;;;;19.05;100.00;100383.28;3605485;39;20417;-65
2023/10/13 07:42:59;;;;;;;12.57;5.55;;;;;;;19.15;100.00;100380.44;3613730;39;20045;-63
2023/10/13 07:45:38;;;;;;;18.45;5.88;;;;;;;19.19;100.00;100362.78;3616502;39;20055;-63
2023/10/13 07:48:18;;;;;;;14.00;5.75;;;;;;;19.10;100.00;100340.06;3616924;39;20054;-66
2023/10/13 07:50:45;;;;;;;16.30;5.75;;;;;;;19.21;100.00;100345.22;3613628;39;20046;-65
2023/10/13 07:53:23;;;;;;;11.48;5.07;;;;;;;19.43;100.00;100370.19;3614840;39;20116;-65
2023/10/13 07:55:55;;;;;;;14.63;5.47;;;;;;;19.46;100.00;100367.16;3614895;39;20059;-63
2023/10/13 07:58:24;;;;;;;15.88;5.38;;;;;;;19.47;100.00;100367.00;3615975;39;20058;-65
2023/10/13 08:01:42;;;;;;;12.80;5.43;;;;;;;19.50;100.00;100368.53;3615483;39;20066;-64
2023/10/13 08:06:06;;;;;;;13.95;5.25;;;;;;;19.55;100.00;100362.59;3615350;39;20059;-64
2023/10/13 08:08:40;;;;;;;18.25;5.88;;;;;;;19.54;100.00;100356.28;3616532;39;20063;-64
2023/10/13 08:11:39;;;;;;;9.23;5.30;;;;;;;19.59;100.00;100366.69;3611421;39;20127;-64
2023/10/13 08:14:00;;;;;;;9.30;5.03;;;;;;;19.62;100.00;100360.91;3615027;39;20127;-64
2023/10/13 08:16:54;;;;;;;12.63;4.90;;;;;;;19.64;100.00;100356.19;3617240;39;20103;-64
2023/10/13 08:19:39;;;;;;;16.17;5.22;;;;;;;19.70;98.87;100340.00;3616499;39;20095;-65
2023/10/13 08:27:34;;;;;;;13.77;5.03;;;;;;;19.93;94.92;100336.66;3619331;39;20266;-64
2023/10/13 08:37:47;;;;;;;12.02;5.30;;;;;;;20.17;91.70;100317.59;3615592;39;20330;-64
2023/10/13 08:43:18;;;;;;;11.85;4.78;;;;;;;20.33;89.45;100316.75;3585380;39;20058;-64
2023/10/13 08:48:16;;;;;;;11.25;5.10;;;;;;;20.44;89.13;100334.66;3597785;39;20050;-64
2023/10/13 08:50:48;;;;;;;12.00;4.70;;;;;;;20.46;87.68;100342.69;3615692;39;20094;-64
2023/10/13 08:56:07;;;;;;;15.02;4.93;;;;;;;20.10;86.72;100263.84;3614773;39;20058;-64
2023/10/13 09:04:27;;;;;;;12.80;5.25;;;;;;;20.57;86.72;100313.16;3615722;39;20053;-66
2023/10/13 09:12:18;;;;;;;11.68;5.05;;;;;;;20.61;85.55;100302.75;3614145;39;20782;-65
2023/10/13 09:14:58;;;;;;;12.80;5.78;;;;;;;20.62;85.45;100305.31;3614586;39;20059;-66
2023/10/13 09:25:53;;;;;;;13.02;5.25;;;;;;;20.70;83.75;100314.50;3614238;39;20083;-66
2023/10/13 09:28:25;;;;;;;11.50;5.22;;;;;;;20.72;83.03;100304.28;3616387;39;20076;-66
2023/10/13 09:30:58;;;;;;;12.23;4.85;;;;;;;20.74;82.56;100303.09;3614203;39;20091;-65
2023/10/13 09:33:50;;;;;;;10.65;5.20;;;;;;;20.77;82.77;100304.59;3614673;39;20062;-65
2023/10/13 09:36:17;;;;;;;13.40;5.07;;;;;;;20.79;82.49;100295.22;3614812;39;20062;-66
2023/10/13 09:39:12;;;;;;;13.02;5.22;;;;;;;20.84;81.71;100300.16;3619596;39;20119;-66
2023/10/13 09:41:32;;;;;;;11.82;5.38;;;;;;;20.97;80.54;100302.34;3613320;39;20055;-65
2023/10/13 09:43:58;;;;;;;12.30;5.22;;;;;;;21.04;80.13;100298.72;3617030;39;20116;-66
2023/10/13 09:46:28;;;;;;;14.77;5.20;;;;;;;21.12;79.07;100296.97;3613809;39;20062;-65
2023/10/13 09:49:22;;;;;;;11.63;5.40;;;;;;;21.15;78.17;100289.28;3613177;39;20039;-66
2023/10/13 09:51:48;;;;;;;10.23;4.88;;;;;;;21.19;77.64;100287.06;3613525;39;20338;-66
2023/10/13 09:54:26;;;;;;;13.60;5.15;;;;;;;21.25;77.05;100283.59;3614448;39;20051;-65
2023/10/13 09:57:09;;;;;;;12.55;4.95;;;;;;;21.31;76.44;100282.88;3613593;39;20125;-65
2023/10/13 10:00:07;;;;;;;16.05;4.85;;;;;;;21.39;77.27;100280.16;3614642;39;20047;-65
2023/10/13 10:02:40;;;;;;;13.75;4.85;;;;;;;21.42;76.11;100252.47;3614607;39;20409;-65
2023/10/13 10:05:21;;;;;;;10.93;4.78;;;;;;;21.63;75.00;100264.63;3608953;39;20059;-66
2023/10/13 10:08:01;;;;;;;14.63;4.95;;;;;;;21.70;74.17;100258.28;3613553;39;20397;-65
2023/10/13 10:11:07;;;;;;;11.98;4.75;;;;;;;21.81;74.36;100267.09;3616072;39;20052;-66
2023/10/13 10:13:53;;;;;;;10.32;5.28;;;;;;;21.85;74.37;100257.47;3615775;39;20043;-66
2023/10/13 10:16:37;;;;;;;12.85;4.88;;;;;;;21.85;73.10;100255.63;3606177;39;20258;-66
2023/10/13 10:19:03;;;;;;;16.10;5.20;;;;;;;21.85;72.88;100249.28;3614918;39;20340;-66
2023/10/13 10:21:35;;;;;;;12.05;5.22;;;;;;;21.83;72.77;100244.00;3614960;39;20057;-66
2023/10/13 10:24:07;;;;;;;11.57;5.00;;;;;;;21.84;72.28;100239.38;3612633;39;20043;-66
2023/10/13 10:26:33;;;;;;;15.18;5.45;;;;;;;21.83;72.36;100262.31;3615607;39;20416;-66
2023/10/13 10:29:01;;;;;;;12.88;5.32;;;;;;;21.82;73.48;100235.94;3617401;39;20055;-66
2023/10/13 10:31:41;;;;;;;17.88;5.38;;;;;;;21.82;71.58;100242.31;3604955;39;20043;-65
2023/10/13 10:34:14;;;;;;;14.52;4.72;;;;;;;21.83;71.75;100222.09;3613996;39;20062;-66
2023/10/13 10:36:43;;;;;;;18.55;5.55;;;;;;;21.83;72.24;100233.06;3613342;39;20434;-66
2023/10/13 10:39:11;;;;;;;12.20;5.45;;;;;;;21.82;72.56;100239.56;3612461;39;20386;-66
2023/10/13 10:44:16;;;;;;;12.73;5.40;;;;;;;21.90;70.94;100236.75;3612596;39;20154;-67
2023/10/13 10:46:52;;;;;;;15.13;5.25;;;;;;;21.90;70.91;100266.84;3616409;39;20051;-65
2023/10/13 10:49:37;;;;;;;12.43;4.85;;;;;;;21.93;70.31;100239.13;3612986;39;20054;-64
2023/10/13 10:52:06;;;;;;;13.63;5.40;;;;;;;21.88;71.13;100236.06;3613188;39;20107;-65
2023/10/13 10:54:31;;;;;;;12.70;5.15;;;;;;;21.84;72.00;100245.69;3614909;39;20054;-65
2023/10/13 10:57:12;;;;;;;14.32;5.60;;;;;;;21.82;71.12;100225.88;3613384;39;20050;-65
2023/10/13 10:59:39;;;;;;;12.93;5.82;;;;;;;21.88;69.75;100236.06;3613229;39;20059;-64
2023/10/13 11:02:07;;;;;;;10.35;5.07;;;;;;;21.95;70.61;100242.53;3617912;39;20066;-66
2023/10/13 11:04:51;;;;;;;14.70;5.47;;;;;;;22.03;70.01;100250.66;3615470;39;20051;-64
2023/10/13 11:07:27;;;;;;;11.18;5.57;;;;;;;22.12;70.03;100248.72;3614958;39;20402;-65
2023/10/13 11:10:04;;;;;;;11.10;5.15;;;;;;;22.21;69.26;100242.16;3616586;39;20270;-65
2023/10/13 11:12:33;;;;;;;11.75;5.10;;;;;;;22.25;67.80;100226.22;3616593;39;20341;-65
2023/10/13 11:15:21;;;;;;;14.52;5.55;;;;;;;22.35;67.14;100232.28;3618705;39;20043;-64
2023/10/13 11:17:56;;;;;;;12.82;5.28;;;;;;;22.39;68.34;100211.72;3617957;39;20131;-64
2023/10/13 11:20:33;;;;;;;12.43;5.20;;;;;;;22.40;67.79;100220.78;3616853;39;20143;-65
2023/10/13 11:23:08;;;;;;;15.80;5.32;;;;;;;22.39;67.92;100210.84;3616319;39;20078;-65
2023/10/13 11:25:37;;;;;;;14.00;5.15;;;;;;;22.44;66.69;100203.78;3620960;39;20047;-65
2023/10/13 11:28:17;;;;;;;13.70;5.57;;;;;;;22.46;67.25;100209.94;3615655;39;20239;-65
2023/10/13 11:30:50;;;;;;;16.85;5.72;;;;;;;22.47;66.76;100184.22;3616272;39;20115;-63
2023/10/13 11:33:19;;;;;;;12.80;5.43;;;;;;;22.12;66.31;100111.84;3615968;39;20054;-66
2023/10/13 11:38:26;;;;;;;13.02;5.63;;;;;;;22.70;65.85;100180.53;3614778;39;20046;-65
2023/10/13 11:44:07;;;;;;;10.50;5.47;;;;;;;22.83;65.11;100161.53;3617161;39;20358;-64
2023/10/13 11:51:47;;;;;;;11.60;5.40;;;;;;;23.02;63.56;100157.38;3616969;39;20086;-64
2023/10/13 11:54:18;;;;;;;17.10;6.13;;;;;;;23.05;63.49;100145.19;3616536;39;20057;-64
2023/10/13 11:56:45;;;;;;;17.38;5.68;;;;;;;23.08;63.13;100155.75;3618316;39;20379;-64
2023/10/13 11:59:17;;;;;;;12.60;5.40;;;;;;;23.09;62.35;100141.00;3618847;39;20050;-65
2023/10/13 12:04:54;;;;;;;15.20;5.93;;;;;;;23.27;62.13;100138.69;3616233;39;20061;-64
2023/10/13 12:07:23;;;;;;;15.52;5.80;;;;;;;23.42;62.93;100132.31;3609948;39;20059;-64
2023/10/13 12:12:20;;;;;;;14.35;5.80;;;;;;;23.78;60.45;100116.63;3615033;39;20045;-65
2023/10/13 12:14:58;;;;;;;15.73;5.53;;;;;;;24.05;60.08;100120.44;3618156;39;20047;-65
2023/10/13 12:17:34;;;;;;;16.15;5.80;;;;;;;24.26;58.91;100127.78;3613674;39;20124;-64
2023/10/13 12:20:10;;;;;;;15.98;5.90;;;;;;;24.20;58.46;100105.72;3615692;39;20077;-65
2023/10/13 12:22:42;;;;;;;17.27;5.75;;;;;;;24.24;58.93;100113.38;3615759;39;20170;-64
2023/10/13 12:26:19;;;;;;;15.32;5.32;;;;;;;24.29;58.32;100121.88;3617705;39;20050;-64
2023/10/13 12:28:18;;;;;;;15.40;5.22;;;;;;;24.31;58.58;100125.25;3611119;39;20151;-65
2023/10/13 12:30:48;;;;;;;13.20;5.70;;;;;;;24.30;59.02;100126.31;3617939;39;20054;-64
2023/10/13 12:33:24;;;;;;;16.25;6.25;;;;;;;24.35;58.25;100133.09;3615545;39;20100;-65
2023/10/13 12:52:19;;;;;;;15.00;5.03;;;;;;;24.04;57.00;100110.50;3615893;39;20115;-65
2023/10/13 12:57:27;;;;;;;16.35;5.25;;;;;;;23.79;57.57;100090.88;3614639;39;20373;-65
2023/10/13 12:59:54;;;;;;;17.85;5.20;;;;;;;23.88;56.89;100072.34;3614797;39;20120;-63
2023/10/13 13:02:24;;;;;;;13.02;4.63;;;;;;;24.02;56.35;100098.03;3615703;39;20118;-64
2023/10/13 13:05:02;;;;;;;15.07;5.35;;;;;;;24.08;55.65;100103.56;3614489;39;20082;-65
2023/10/13 13:07:29;;;;;;;16.67;5.47;;;;;;;24.13;56.20;100108.44;3615916;39;20058;-66
2023/10/13 13:09:59;;;;;;;13.40;5.07;;;;;;;24.11;55.57;100085.84;3615169;39;20055;-65
2023/10/13 13:12:28;;;;;;;15.68;5.05;;;;;;;24.20;54.34;100106.59;3615683;39;20050;-65
2023/10/13 13:14:55;;;;;;;15.75;4.10;;;;;;;24.17;55.60;100093.28;3615279;39;20068;-67
2023/10/13 13:17:21;;;;;;;13.85;5.10;;;;;;;24.16;55.10;100096.19;3614019;39;20051;-66
2023/10/13 13:19:47;;;;;;;18.90;5.63;;;;;;;24.14;54.67;100090.94;3615095;39;20055;-67
2023/10/13 13:22:13;;;;;;;14.13;4.22;;;;;;;24.14;53.32;100096.41;3616919;39;20063;-65
2023/10/13 13:24:43;;;;;;;12.73;4.28;;;;;;;24.16;54.19;100086.06;3614576;39;20082;-66
2023/10/13 13:27:13;;;;;;;11.63;4.03;;;;;;;24.16;54.42;100099.78;3616577;39;20124;-65
2023/10/13 13:29:40;;;;;;;14.00;4.55;;;;;;;24.15;53.96;100103.59;3614569;39;20369;-66
2023/10/13 13:32:17;;;;;;;9.85;4.25;;;;;;;24.13;53.28;100088.38;3614152;39;20063;-65
2023/10/13 13:34:43;;;;;;;18.80;6.55;;;;;;;24.15;53.59;100098.09;3614167;39;20061;-65
2023/10/13 13:37:12;;;;;;;15.77;5.20;;;;;;;24.10;53.91;100103.34;3616165;39;20350;-66
2023/10/13 13:39:44;;;;;;;14.10;5.10;;;;;;;24.04;54.83;100099.53;3615861;39;20045;-65
2023/10/13 13:42:09;;;;;;;16.48;4.93;;;;;;;24.00;53.97;100094.63;3613367;39;20047;-66
2023/10/13 13:44:38;;;;;;;12.80;5.15;;;;;;;23.76;54.47;100063.84;3614053;39;20065;-65
2023/10/13 13:47:11;;;;;;;17.15;4.50;;;;;;;23.91;54.52;100098.56;3616528;39;20289;-65
2023/10/13 13:49:50;;;;;;;13.23;5.28;;;;;;;23.83;54.59;100096.81;3615919;39;20059;-65
2023/10/13 13:52:21;;;;;;;10.80;4.18;;;;;;;23.80;56.04;100092.56;3614285;39;20421;-65
2023/10/13 13:54:47;;;;;;;15.35;5.18;;;;;;;23.79;55.51;100082.66;3614436;39;20055;-66
2023/10/13 13:57:13;;;;;;;13.68;4.45;;;;;;;23.76;55.23;100074.81;3613311;39;20377;-66
2023/10/13 13:59:43;;;;;;;12.90;4.28;;;;;;;23.86;55.06;100083.53;3613940;39;20050;-67
2023/10/13 14:02:19;;;;;;;14.32;4.55;;;;;;;23.86;54.91;100075.31;3614870;39;20042;-65
2023/10/13 14:04:50;;;;;;;14.63;4.75;;;;;;;23.88;54.73;100075.09;3617910;39;20399;-66
2023/10/13 14:07:19;;;;;;;10.15;4.55;;;;;;;23.87;55.70;100067.91;3614600;39;20119;-66
2023/10/13 14:09:51;;;;;;;13.88;4.60;;;;;;;23.83;55.61;100069.38;3613062;39;20091;-66
2023/10/13 14:12:41;;;;;;;10.40;4.13;;;;;;;23.81;54.34;100082.44;3612676;39;20117;-65
2023/10/13 14:15:19;;;;;;;10.75;4.22;;;;;;;23.74;55.56;100065.91;3617323;39;20058;-66
2023/10/13 14:17:48;;;;;;;12.77;4.25;;;;;;;23.77;55.68;100078.41;3615564;39;20043;-65
2023/10/13 14:20:20;;;;;;;10.95;3.92;;;;;;;23.78;55.96;100085.59;3612810;39;20116;-65
2023/10/13 14:22:49;;;;;;;13.38;4.65;;;;;;;23.77;55.21;100079.25;3605670;39;20051;-66
2023/10/13 14:25:15;;;;;;;12.05;4.25;;;;;;;23.88;54.83;100077.84;3615494;39;20051;-65
2023/10/13 14:27:42;;;;;;;13.57;5.20;;;;;;;23.93;54.47;100078.09;3613232;39;20154;-67
2023/10/13 14:30:08;;;;;;;12.43;4.65;;;;;;;23.95;54.15;100080.66;3614428;39;20391;-65
2023/10/13 14:32:40;;;;;;;11.75;4.07;;;;;;;23.94;54.30;100078.94;3615630;39;20110;-66
2023/10/13 14:35:14;;;;;;;11.07;4.43;;;;;;;23.92;55.21;100086.56;3615665;39;20160;-66
2023/10/13 14:37:41;;;;;;;13.00;4.85;;;;;;;23.89;55.63;100075.97;3614516;39;20387;-66
2023/10/13 14:40:12;;;;;;;11.88;4.60;;;;;;;23.88;55.82;100080.59;3617178;39;20420;-65
2023/10/13 14:42:40;;;;;;;11.30;4.25;;;;;;;23.89;55.99;100086.94;3615935;39;20095;-65
2023/10/13 14:45:16;;;;;;;11.65;4.22;;;;;;;23.82;56.25;100071.28;3614609;39;20393;-65
2023/10/13 14:47:43;;;;;;;10.02;4.10;;;;;;;23.71;55.70;100071.81;3617002;39;20050;-64
2023/10/13 14:50:19;;;;;;;11.38;4.65;;;;;;;23.78;55.70;100091.91;3616296;39;20047;-66
2023/10/13 14:52:46;;;;;;;15.63;5.05;;;;;;;23.70;56.05;100089.34;3615650;39;20043;-65
2023/10/13 14:55:18;;;;;;;13.43;4.30;;;;;;;23.64;56.54;100079.13;3618054;39;20077;-66
2023/10/13 14:57:49;;;;;;;13.68;4.30;;;;;;;23.61;56.25;100077.59;3617312;39;20050;-65
2023/10/13 15:00:24;;;;;;;14.68;4.78;;;;;;;23.49;57.19;100072.84;3616342;39;20055;-67
2023/10/13 15:02:52;;;;;;;11.35;4.80;;;;;;;23.37;57.13;100050.59;3616528;39;20066;-66
2023/10/13 15:05:17;;;;;;;12.25;4.07;;;;;;;23.40;57.34;100077.63;3619816;39;20043;-66
2023/10/13 15:07:45;;;;;;;11.23;4.43;;;;;;;23.31;57.80;100074.19;3614709;39;20306;-64
2023/10/13 15:10:14;;;;;;;13.43;6.22;;;;;;;23.26;58.47;100075.81;3614492;39;20054;-66
2023/10/13 15:12:48;;;;;;;10.02;4.65;;;;;;;23.17;58.56;100061.38;3614008;39;20047;-65
2023/10/13 15:15:16;;;;;;;13.25;4.38;;;;;;;23.13;58.11;100077.38;3615792;39;20270;-66
2023/10/13 15:17:43;;;;;;;12.70;4.55;;;;;;;23.08;58.58;100068.88;3617234;39;20377;-65
2023/10/13 15:20:10;;;;;;;10.55;4.50;;;;;;;23.03;58.87;100073.25;3615142;39;20306;-66
2023/10/13 15:22:37;;;;;;;7.82;4.00;;;;;;;22.88;60.72;100068.63;3614657;39;20397;-66
2023/10/13 15:25:20;;;;;;;14.60;4.75;;;;;;;22.71;61.74;100031.56;3617941;39;20046;-65